createdAt,value
2019-04-26T00:00:25.535Z,101051.50
2019-04-26T00:02:56.364Z,101048.01
2019-04-26T00:05:34.364Z,101029.01
2019-04-26T00:07:57.306Z,101036.06
2019-04-26T00:10:34.107Z,101060.77
2019-04-26T00:13:07.983Z,101058.45
2019-04-26T00:15:44.830Z,101056.39
2019-04-26T00:18:14.712Z,101056.78
2019-04-26T00:20:44.192Z,101054.13
2019-04-26T00:23:14.133Z,101060.81
2019-04-26T00:25:43.424Z,101058.67
2019-04-26T00:28:12.878Z,101062.06
2019-04-26T00:30:42.139Z,101055.31
2019-04-26T00:33:12.443Z,101062.72
2019-04-26T00:35:47.911Z,101071.20
2019-04-26T00:38:14.215Z,101074.17
2019-04-26T00:40:43.733Z,101065.81
2019-04-26T00:43:12.948Z,101066.09
2019-04-26T00:45:42.169Z,101066.56
2019-04-26T00:48:11.341Z,101067.81
2019-04-26T00:50:40.599Z,101077.47
2019-04-26T00:53:09.821Z,101076.83
2019-04-26T00:55:39.281Z,101075.30
2019-04-26T00:58:08.499Z,101079.72
2019-04-26T01:00:37.749Z,101073.39
2019-04-26T01:03:06.960Z,101071.28
2019-04-26T01:05:37.933Z,101082.50
2019-04-26T01:08:07.187Z,101078.30
2019-04-26T01:10:36.389Z,101082.56
2019-04-26T01:13:05.813Z,101085.58
2019-04-26T01:15:35.078Z,101084.83
2019-04-26T01:18:04.376Z,101088.07
2019-04-26T01:20:33.630Z,101090.92
2019-04-26T01:23:05.287Z,101099.20
2019-04-26T01:25:54.190Z,101110.85
2019-04-26T01:28:39.594Z,101115.11
2019-04-26T01:31:08.763Z,101115.75
2019-04-26T01:33:38.416Z,101114.26
2019-04-26T01:36:13.074Z,101105.45
2019-04-26T01:38:38.865Z,101105.92
2019-04-26T01:41:09.813Z,101108.69
2019-04-26T01:43:56.656Z,101108.14
2019-04-26T01:46:27.567Z,101104.90
2019-04-26T01:49:04.471Z,101099.86
2019-04-26T01:51:55.038Z,101094.56
2019-04-26T01:54:29.886Z,101087.91
2019-04-26T01:57:04.500Z,101097.73
2019-04-26T01:59:33.717Z,101115.28
2019-04-26T02:02:19.415Z,101109.98
2019-04-26T02:04:53.052Z,101094.55
2019-04-26T02:07:41.824Z,101107.29
2019-04-26T02:10:14.322Z,101110.47
2019-04-26T02:12:45.989Z,101109.00
2019-04-26T02:15:15.908Z,101106.27
2019-04-26T02:17:46.109Z,101107.83
2019-04-26T02:20:18.687Z,101107.87
2019-04-26T02:22:49.559Z,101108.97
2019-04-26T02:25:18.796Z,101102.91
2019-04-26T02:27:48.085Z,101108.33
2019-04-26T02:30:17.445Z,101108.58
2019-04-26T02:32:46.672Z,101106.81
2019-04-26T02:35:15.920Z,101090.39
2019-04-26T02:37:45.118Z,101088.98
2019-04-26T02:40:15.156Z,101078.93
2019-04-26T02:42:44.384Z,101089.27
2019-04-26T02:45:22.726Z,101090.98
2019-04-26T02:48:10.947Z,101099.44
2019-04-26T02:50:57.714Z,101098.98
2019-04-26T02:53:38.820Z,101091.94
2019-04-26T02:56:41.916Z,101095.17
2019-04-26T02:59:18.542Z,101102.91
2019-04-26T03:01:48.425Z,101104.34
2019-04-26T03:04:17.699Z,101119.08
2019-04-26T03:07:02.461Z,101120.00
2019-04-26T03:09:18.045Z,101126.59
2019-04-26T03:12:13.108Z,101129.34
2019-04-26T03:14:51.740Z,101122.16
2019-04-26T03:17:22.648Z,101123.55
2019-04-26T03:20:17.594Z,101114.79
2019-04-26T03:23:06.598Z,101125.27
2019-04-26T03:25:49.398Z,101133.26
2019-04-26T03:28:41.683Z,101139.23
2019-04-26T03:31:27.266Z,101134.32
2019-04-26T03:34:10.938Z,101151.66
2019-04-26T03:37:25.299Z,101155.09
2019-04-26T03:40:43.134Z,101157.91
2019-04-26T03:43:51.615Z,101151.16
2019-04-26T03:46:30.986Z,101144.59
2019-04-26T03:49:23.090Z,101142.31
2019-04-26T03:52:18.045Z,101141.98
2019-04-26T03:54:50.029Z,101141.19
2019-04-26T03:57:44.689Z,101150.63
2019-04-26T04:00:30.857Z,101167.23
2019-04-26T04:03:11.770Z,101189.09
2019-04-26T04:05:53.595Z,101204.13
2019-04-26T04:08:40.661Z,101203.80
2019-04-26T04:11:20.982Z,101192.67
2019-04-26T04:13:55.531Z,101167.92
2019-04-26T04:16:51.962Z,101167.39
2019-04-26T04:19:54.200Z,101176.86
2019-04-26T04:22:23.595Z,101174.60
2019-04-26T04:25:03.698Z,101183.56
2019-04-26T04:27:47.878Z,101179.09
2019-04-26T04:30:30.461Z,101174.88
2019-04-26T04:33:16.624Z,101177.79
2019-04-26T04:35:54.650Z,101177.84
2019-04-26T04:38:49.591Z,101189.06
2019-04-26T04:41:31.082Z,101184.86
2019-04-26T04:44:36.387Z,101172.13
2019-04-26T04:47:45.159Z,101166.40
2019-04-26T04:53:15.378Z,101186.59
2019-04-26T05:08:28.471Z,101204.54
2019-04-26T05:11:18.356Z,101220.78
2019-04-26T05:13:55.575Z,101221.06
2019-04-26T05:16:52.583Z,101208.53
2019-04-26T05:46:06.169Z,101223.75
2019-04-26T06:11:31.432Z,101246.17
2019-04-26T06:14:28.876Z,101253.23
2019-04-26T06:57:30.575Z,101334.44
2019-04-26T08:34:12.993Z,101390.59
2019-04-26T08:39:53.521Z,101380.13
2019-04-26T09:17:27.862Z,101392.09
2019-04-26T09:25:16.026Z,101409.63
2019-04-26T09:27:59.115Z,101409.26
2019-04-26T09:30:38.552Z,101405.97
2019-04-26T09:33:14.393Z,101406.17
2019-04-26T09:38:53.044Z,101402.41
2019-04-26T09:46:52.906Z,101406.36
2019-04-26T09:49:43.670Z,101405.58
2019-04-26T09:55:14.960Z,101404.77
2019-04-26T09:57:44.700Z,101401.05
2019-04-26T10:00:17.168Z,101397.45
2019-04-26T10:05:42.219Z,101393.15
2019-04-26T10:08:13.087Z,101385.34
2019-04-26T10:16:23.434Z,101397.88
2019-04-26T10:55:31.212Z,101396.91
2019-04-26T10:58:10.840Z,101394.13
2019-04-26T11:00:44.349Z,101394.32
2019-04-26T11:03:13.607Z,101385.77
2019-04-26T11:05:42.969Z,101391.67
2019-04-26T11:08:12.525Z,101388.08
2019-04-26T11:21:26.073Z,101390.08
2019-04-26T11:23:56.046Z,101385.14
2019-04-26T11:29:01.531Z,101386.88
2019-04-26T11:35:00.759Z,101388.95
2019-04-26T11:37:30.275Z,101382.31
2019-04-26T11:42:35.876Z,101379.19
2019-04-26T11:48:03.379Z,101380.59
2019-04-26T11:53:15.272Z,101378.63
2019-04-26T11:55:45.490Z,101372.25
2019-04-26T11:58:24.322Z,101375.15
2019-04-26T12:13:05.790Z,101394.05
2019-04-26T12:15:43.581Z,101392.83
2019-04-26T12:18:30.119Z,101395.02
2019-04-26T12:33:12.885Z,101388.72
2019-04-26T12:59:44.801Z,101399.59
2019-04-26T13:05:00.233Z,101413.86
2019-04-26T13:15:54.272Z,101405.90
2019-04-26T13:18:23.671Z,101407.63
2019-04-26T13:20:53.433Z,101409.30
2019-04-26T13:23:25.484Z,101407.35
2019-04-26T13:25:59.524Z,101399.05
2019-04-26T13:28:26.623Z,101387.23
2019-04-26T13:30:56.171Z,101392.16
2019-04-26T13:33:27.389Z,101399.86
2019-04-26T13:36:04.400Z,101415.20
2019-04-26T13:38:28.569Z,101418.56
2019-04-26T13:40:59.528Z,101409.42
2019-04-26T13:43:28.989Z,101409.84
2019-04-26T13:46:08.827Z,101413.98
2019-04-26T13:48:43.802Z,101422.79
2019-04-26T13:51:15.122Z,101419.61
2019-04-26T13:53:44.447Z,101415.88
2019-04-26T13:56:14.000Z,101410.70
2019-04-26T13:58:43.227Z,101406.40
2019-04-26T14:01:14.717Z,101405.28
2019-04-26T14:03:44.087Z,101409.41
2019-04-26T14:06:13.374Z,101419.41
2019-04-26T14:08:42.775Z,101416.12
2019-04-26T14:11:12.050Z,101410.67
2019-04-26T14:13:41.274Z,101421.75
2019-04-26T14:16:10.548Z,101420.32
2019-04-26T14:18:40.769Z,101418.20
2019-04-26T14:21:10.153Z,101415.48
2019-04-26T14:23:45.355Z,101409.97
2019-04-26T14:26:16.406Z,101405.37
2019-04-26T14:28:45.584Z,101401.52
2019-04-26T14:31:16.353Z,101397.03
2019-04-26T14:33:46.023Z,101393.80
2019-04-26T14:36:18.181Z,101391.33
2019-04-26T14:38:46.426Z,101394.52
2019-04-26T14:41:21.994Z,101401.88
2019-04-26T14:43:46.716Z,101390.71
2019-04-26T14:46:16.386Z,101384.77
2019-04-26T14:49:00.332Z,101395.55
2019-04-26T14:51:18.608Z,101392.11
2019-04-26T14:53:47.719Z,101392.56
2019-04-26T14:56:16.935Z,101395.85
2019-04-26T14:58:46.105Z,101401.16
2019-04-26T15:01:19.970Z,101395.36
2019-04-26T15:03:57.135Z,101381.12
2019-04-26T15:06:26.132Z,101382.90
2019-04-26T15:08:55.486Z,101377.77
2019-04-26T15:11:24.778Z,101380.53
2019-04-26T15:13:54.031Z,101381.86
2019-04-26T15:16:24.429Z,101375.32
2019-04-26T15:18:53.743Z,101377.22
2019-04-26T15:21:22.965Z,101378.91
2019-04-26T15:23:55.402Z,101375.31
2019-04-26T15:26:29.529Z,101377.64
2019-04-26T15:28:54.442Z,101379.91
2019-04-26T15:31:24.951Z,101377.42
2019-04-26T15:33:54.361Z,101379.59
2019-04-26T15:36:24.417Z,101384.67
2019-04-26T15:38:53.664Z,101389.37
2019-04-26T15:41:36.065Z,101389.20
2019-04-26T15:44:11.514Z,101385.31
2019-04-26T15:46:48.536Z,101386.77
2019-04-26T15:49:19.551Z,101387.19
2019-04-26T15:51:48.965Z,101388.75
2019-04-26T15:54:21.558Z,101389.66
2019-04-26T15:56:53.344Z,101395.29
2019-04-26T15:59:22.792Z,101394.40
2019-04-26T16:01:52.141Z,101388.09
2019-04-26T16:04:22.250Z,101387.69
2019-04-26T16:06:52.558Z,101387.95
2019-04-26T16:09:22.975Z,101389.02
2019-04-26T16:11:53.165Z,101392.23
2019-04-26T16:14:24.899Z,101388.06
2019-04-26T16:16:54.346Z,101384.69
2019-04-26T16:19:26.698Z,101387.83
2019-04-26T16:21:55.381Z,101386.63
2019-04-26T16:24:27.949Z,101383.63
2019-04-26T16:26:56.344Z,101390.06
2019-04-26T16:29:27.205Z,101393.70
2019-04-26T16:32:09.828Z,101390.95
2019-04-26T16:34:47.502Z,101397.83
2019-04-26T16:37:15.965Z,101398.86
2019-04-26T16:39:48.075Z,101403.78
2019-04-26T16:42:14.082Z,101406.89
2019-04-26T16:44:45.026Z,101407.25
2019-04-26T16:47:14.479Z,101409.34
2019-04-26T16:49:46.502Z,101410.13
2019-04-26T16:52:14.652Z,101411.70
2019-04-26T16:54:44.060Z,101412.90
2019-04-26T16:57:13.330Z,101416.94
2019-04-26T16:59:48.843Z,101415.29
2019-04-26T17:02:15.992Z,101420.05
2019-04-26T17:04:44.743Z,101413.02
2019-04-26T17:07:21.876Z,101412.76
2019-04-26T17:09:57.975Z,101415.81
2019-04-26T17:12:16.155Z,101413.52
2019-04-26T17:14:48.752Z,101408.16
2019-04-26T17:17:16.489Z,101411.56
2019-04-26T17:19:45.673Z,101401.14
2019-04-26T17:22:25.168Z,101404.61
2019-04-26T17:25:02.511Z,101404.64
2019-04-26T17:27:33.073Z,101410.59
2019-04-26T17:30:03.076Z,101409.94
2019-04-26T17:32:34.965Z,101409.31
2019-04-26T17:35:07.361Z,101404.35
2019-04-26T17:37:35.270Z,101398.77
2019-04-26T17:40:04.743Z,101408.09
2019-04-26T17:42:36.391Z,101403.19
2019-04-26T17:45:07.348Z,101409.03
2019-04-26T17:47:40.037Z,101408.86
2019-04-26T17:50:07.724Z,101408.46
2019-04-26T17:52:37.773Z,101410.34
2019-04-26T17:55:07.835Z,101417.52
2019-04-26T17:57:43.579Z,101412.30
2019-04-26T18:00:13.378Z,101413.95
2019-04-26T18:02:45.969Z,101417.41
2019-04-26T18:05:13.028Z,101415.28
2019-04-26T18:07:50.279Z,101418.48
2019-04-26T18:10:13.788Z,101416.80
2019-04-26T18:12:44.620Z,101417.86
2019-04-26T18:15:17.259Z,101419.51
2019-04-26T18:17:46.582Z,101419.45
2019-04-26T18:20:23.678Z,101426.83
2019-04-26T18:23:00.844Z,101425.45
2019-04-26T18:25:30.135Z,101430.80
2019-04-26T18:27:59.364Z,101428.62
2019-04-26T18:30:28.645Z,101427.42
2019-04-26T18:32:58.009Z,101421.67
2019-04-26T18:35:27.274Z,101421.52
2019-04-26T18:37:56.749Z,101425.89
2019-04-26T18:40:25.997Z,101435.37
2019-04-26T18:42:55.248Z,101433.33
2019-04-26T18:45:28.913Z,101433.47
2019-04-26T18:48:00.937Z,101436.13
2019-04-26T18:50:28.539Z,101430.78
2019-04-26T18:53:05.456Z,101432.50
2019-04-26T18:55:34.775Z,101434.11
2019-04-26T18:58:05.560Z,101434.81
2019-04-26T19:00:36.851Z,101434.05
2019-04-26T19:03:06.260Z,101440.09
2019-04-26T19:05:35.679Z,101443.86
2019-04-26T19:08:07.349Z,101441.62
2019-04-26T19:10:36.350Z,101450.80
2019-04-26T19:13:23.294Z,101450.13
2019-04-26T19:16:16.633Z,101447.21
2019-04-26T19:18:47.044Z,101447.32
2019-04-26T19:21:18.047Z,101449.94
2019-04-26T19:23:47.316Z,101448.92
2019-04-26T19:26:16.624Z,101456.11
2019-04-26T19:28:45.879Z,101456.85
2019-04-26T19:31:15.155Z,101459.38
2019-04-26T19:33:47.612Z,101462.17
2019-04-26T19:36:17.743Z,101461.93
2019-04-26T19:38:49.906Z,101458.25
2019-04-26T19:41:21.157Z,101455.56
2019-04-26T19:43:48.276Z,101461.32
2019-04-26T19:46:25.329Z,101461.48
2019-04-26T19:49:14.578Z,101462.30
2019-04-26T19:52:03.741Z,101462.62
2019-04-26T19:54:38.326Z,101462.66
2019-04-26T19:57:06.989Z,101465.92
2019-04-26T19:59:36.161Z,101465.72
2019-04-26T20:02:05.837Z,101466.61
2019-04-26T20:04:35.372Z,101463.83
2019-04-26T20:07:04.785Z,101463.55
2019-04-26T20:09:34.015Z,101464.36
2019-04-26T20:12:03.249Z,101461.13
2019-04-26T20:14:44.697Z,101462.79
2019-04-26T20:17:03.373Z,101464.95
2019-04-26T20:19:37.236Z,101462.42
2019-04-26T20:22:03.708Z,101464.52
2019-04-26T20:24:32.918Z,101464.55
2019-04-26T20:27:03.544Z,101462.70
2019-04-26T20:29:33.077Z,101464.23
2019-04-26T20:32:03.955Z,101462.09
2019-04-26T20:34:33.175Z,101455.16
2019-04-26T20:37:02.414Z,101456.78
2019-04-26T20:39:33.792Z,101456.34
2019-04-26T20:42:04.082Z,101455.88
2019-04-26T20:44:48.221Z,101455.94
2019-04-26T20:47:07.589Z,101459.30
2019-04-26T20:49:47.180Z,101459.80
2019-04-26T20:52:06.356Z,101455.98
2019-04-26T20:54:35.556Z,101456.33
2019-04-26T20:57:04.802Z,101455.62
2019-04-26T20:59:34.027Z,101459.26
2019-04-26T21:02:07.867Z,101454.70
2019-04-26T21:04:38.356Z,101455.43
2019-04-26T21:07:06.714Z,101457.70
2019-04-26T21:09:40.006Z,101458.53
2019-04-26T21:12:07.933Z,101467.78
2019-04-26T21:14:44.399Z,101460.32
2019-04-26T21:17:08.844Z,101458.82
2019-04-26T21:19:38.152Z,101460.98
2019-04-26T21:22:07.466Z,101461.61
2019-04-26T21:24:38.371Z,101457.35
2019-04-26T21:27:25.864Z,101451.05
2019-04-26T21:30:13.495Z,101447.03
2019-04-26T21:32:59.235Z,101445.39
2019-04-26T21:35:42.858Z,101445.22
2019-04-26T21:38:25.577Z,101438.60
2019-04-26T21:41:03.943Z,101434.80
2019-04-26T21:43:33.647Z,101438.69
2019-04-26T21:46:07.662Z,101436.16
2019-04-26T21:48:32.764Z,101435.23
2019-04-26T21:51:03.105Z,101434.47
2019-04-26T21:53:32.759Z,101438.49
2019-04-26T21:56:03.509Z,101432.70
2019-04-26T21:58:33.712Z,101428.89
2019-04-26T22:01:04.633Z,101422.67
2019-04-26T22:03:34.298Z,101421.20
2019-04-26T22:06:04.148Z,101418.60
2019-04-26T22:08:35.076Z,101421.67
2019-04-26T22:11:04.433Z,101420.11
2019-04-26T22:13:51.195Z,101414.78
2019-04-26T22:16:34.251Z,101415.18
2019-04-26T22:19:00.716Z,101413.14
2019-04-26T22:21:31.666Z,101407.25
2019-04-26T22:24:05.961Z,101412.36
2019-04-26T22:26:38.040Z,101412.59
2019-04-26T22:29:08.011Z,101406.17
2019-04-26T22:31:37.887Z,101404.83
2019-04-26T22:34:08.935Z,101405.00
2019-04-26T22:36:38.237Z,101405.98
2019-04-26T22:39:17.679Z,101406.02
2019-04-26T22:41:46.873Z,101405.55
2019-04-26T22:44:17.739Z,101409.94
2019-04-26T22:46:51.306Z,101410.86
2019-04-26T22:49:20.582Z,101404.44
2019-04-26T22:51:49.869Z,101411.75
2019-04-26T22:54:19.172Z,101408.91
2019-04-26T22:56:48.445Z,101411.83
2019-04-26T22:59:17.772Z,101410.10
2019-04-26T23:01:48.723Z,101410.61
2019-04-26T23:04:23.614Z,101413.47
2019-04-26T23:06:49.009Z,101408.73
2019-04-26T23:09:20.778Z,101405.44
2019-04-26T23:11:50.928Z,101406.09
2019-04-26T23:14:33.716Z,101405.84
2019-04-26T23:17:23.142Z,101405.88
2019-04-26T23:19:57.545Z,101399.45
2019-04-26T23:22:30.981Z,101401.30
2019-04-26T23:24:58.169Z,101397.09
2019-04-26T23:27:27.477Z,101399.27
2019-04-26T23:29:58.453Z,101399.28
2019-04-26T23:32:27.734Z,101397.76
2019-04-26T23:34:58.312Z,101398.91
2019-04-26T23:37:27.855Z,101396.42
2019-04-26T23:39:57.174Z,101391.72
2019-04-26T23:42:26.343Z,101392.59
2019-04-26T23:44:55.574Z,101391.03
2019-04-26T23:47:25.620Z,101394.27
2019-04-26T23:49:57.011Z,101399.13
2019-04-26T23:52:26.041Z,101398.09
2019-04-26T23:54:55.251Z,101401.23
2019-04-26T23:57:27.470Z,101399.00
2019-04-26T23:59:59.835Z,101398.38
